Time;durP1;ratioP1;P1;durP2;ratioP2;P2;SDS_P1;SDS_P2;PMS_P1;PMS_P2;Temp;Humidity;BMP_temperature;BMP_pressure;BME280_temperature;BME280_humidity;BME280_pressure;Samples;Min_cycle;Max_cycle;Signal;HPM_P1;HPM_P2
2023/02/27 00:00:13;;;;;;;3.47;2.00;;;;;;;-4.08;100.00;96009.97;1022841;28;20054;-66
2023/02/27 00:00:45;;;;;;;4.88;2.75;;;;;;;-4.07;100.00;96009.00;1023939;28;20028;-65
2023/02/27 00:01:15;;;;;;;3.55;2.08;;;;;;;-4.07;100.00;96011.56;1029812;28;20032;-66
2023/02/27 00:01:46;;;;;;;2.23;1.67;;;;;;;-4.08;100.00;96014.31;1029604;28;20030;-66
2023/02/27 00:02:16;;;;;;;2.67;2.13;;;;;;;-4.07;100.00;96010.78;1027512;28;20058;-63
2023/02/27 00:02:48;;;;;;;6.43;2.33;;;;;;;-4.14;100.00;96000.38;1030709;28;20026;-65
2023/02/27 00:03:18;;;;;;;3.13;2.33;;;;;;;-4.10;100.00;96011.09;1030535;28;20029;-66
2023/02/27 00:03:48;;;;;;;2.53;2.30;;;;;;;-4.14;100.00;96007.28;1030413;28;20030;-64
2023/02/27 00:04:19;;;;;;;2.73;2.07;;;;;;;-4.11;100.00;96009.50;1023185;28;20102;-66
2023/02/27 00:04:50;;;;;;;6.00;2.37;;;;;;;-4.13;100.00;96012.22;1022524;28;20539;-66
2023/02/27 00:05:21;;;;;;;2.80;2.47;;;;;;;-4.28;100.00;95989.03;1018623;28;20124;-66
2023/02/27 00:05:52;;;;;;;6.68;2.45;;;;;;;-4.12;100.00;96008.72;1019306;29;20473;-66
2023/02/27 00:06:23;;;;;;;5.55;2.50;;;;;;;-4.11;100.00;96014.63;1022645;29;20059;-66
2023/02/27 00:06:54;;;;;;;4.27;2.07;;;;;;;-4.14;100.00;96008.06;1023535;28;20556;-66
2023/02/27 00:07:27;;;;;;;4.63;2.23;;;;;;;-4.16;100.00;96012.53;1030850;28;20034;-66
2023/02/27 00:07:57;;;;;;;5.05;2.45;;;;;;;-4.14;100.00;96014.97;1031114;28;20070;-66
2023/02/27 00:08:28;;;;;;;3.43;2.20;;;;;;;-4.14;100.00;96015.75;1031149;28;20436;-66
2023/02/27 00:08:59;;;;;;;4.67;2.40;;;;;;;-4.15;100.00;96014.16;1030693;28;20029;-63
2023/02/27 00:09:29;;;;;;;2.67;2.00;;;;;;;-4.15;100.00;96019.28;1029746;28;20037;-65
2023/02/27 00:10:00;;;;;;;4.63;2.33;;;;;;;-4.16;100.00;96015.09;1030884;28;20018;-64
2023/02/27 00:10:30;;;;;;;5.47;2.40;;;;;;;-4.14;100.00;96015.75;1026544;28;20090;-66
2023/02/27 00:11:00;;;;;;;3.60;2.13;;;;;;;-4.14;100.00;96018.31;1031042;28;20029;-66
2023/02/27 00:11:31;;;;;;;3.37;2.30;;;;;;;-4.14;100.00;96014.97;1030669;28;20404;-66
2023/02/27 00:12:01;;;;;;;5.60;2.33;;;;;;;-4.14;100.00;96020.09;1030419;28;20022;-63
2023/02/27 00:12:36;;;;;;;5.13;2.63;;;;;;;-4.16;100.00;96025.34;1031067;28;20061;-64
2023/02/27 00:13:07;;;;;;;3.22;2.15;;;;;;;-4.17;100.00;96021.19;1026520;28;20058;-65
2023/02/27 00:13:37;;;;;;;3.03;1.97;;;;;;;-4.18;100.00;96027.28;1026406;28;20042;-65
2023/02/27 00:14:08;;;;;;;4.27;2.63;;;;;;;-4.18;100.00;96019.63;1027509;28;20037;-66
2023/02/27 00:14:38;;;;;;;5.40;2.40;;;;;;;-4.19;100.00;96025.72;1022689;28;20179;-66
2023/02/27 00:15:14;;;;;;;4.30;2.40;;;;;;;-4.22;100.00;96026.03;1026798;28;20089;-64
2023/02/27 00:15:46;;;;;;;6.93;2.38;;;;;;;-4.25;100.00;96018.66;1026430;28;20026;-65
2023/02/27 00:16:16;;;;;;;3.97;2.17;;;;;;;-4.18;100.00;96024.72;1019724;28;20051;-64
2023/02/27 00:16:47;;;;;;;4.20;2.67;;;;;;;-4.27;100.00;96010.34;1023061;28;20107;-64
2023/02/27 00:17:17;;;;;;;4.57;2.80;;;;;;;-4.20;100.00;96024.09;1022797;29;20222;-64
2023/02/27 00:17:48;;;;;;;4.27;2.50;;;;;;;-4.18;100.00;96029.84;1023072;28;20023;-66
2023/02/27 00:18:18;;;;;;;5.83;2.33;;;;;;;-4.18;100.00;96024.72;1022769;28;20030;-66
2023/02/27 00:18:49;;;;;;;5.00;2.60;;;;;;;-4.20;100.00;96025.84;1026560;28;20026;-65
2023/02/27 00:19:20;;;;;;;3.10;2.47;;;;;;;-4.22;100.00;96023.47;1030487;28;20543;-65
2023/02/27 00:19:51;;;;;;;2.55;1.90;;;;;;;-4.23;100.00;96026.19;1030468;28;20515;-66
2023/02/27 00:20:21;;;;;;;3.00;2.07;;;;;;;-4.27;100.00;96020.59;1032352;28;20089;-65
2023/02/27 00:20:52;;;;;;;5.20;2.37;;;;;;;-4.27;100.00;96020.59;1026926;28;20401;-65
2023/02/27 00:21:22;;;;;;;2.50;1.70;;;;;;;-4.23;100.00;96024.41;1022285;29;20078;-66
2023/02/27 00:21:53;;;;;;;3.67;2.23;;;;;;;-4.20;100.00;96026.66;1019311;28;20039;-65
2023/02/27 00:22:23;;;;;;;3.00;2.00;;;;;;;-4.19;100.00;96027.44;1018826;28;20075;-65
2023/02/27 00:22:54;;;;;;;4.97;2.30;;;;;;;-4.20;100.00;96028.41;1022720;28;20063;-66
2023/02/27 00:23:24;;;;;;;4.37;2.10;;;;;;;-4.19;100.00;96028.28;1026854;28;20023;-66
2023/02/27 00:23:55;;;;;;;4.37;2.00;;;;;;;-4.36;100.00;96007.00;1022403;28;20051;-65
2023/02/27 00:24:25;;;;;;;4.53;2.37;;;;;;;-4.19;100.00;96028.28;1026632;28;20023;-62
2023/02/27 00:24:56;;;;;;;4.93;2.03;;;;;;;-4.18;100.00;96026.50;1030917;28;20023;-65
2023/02/27 00:25:26;;;;;;;3.10;2.17;;;;;;;-4.18;100.00;96029.06;1026405;28;20022;-63
2023/02/27 00:25:59;;;;;;;4.83;2.20;;;;;;;-4.19;100.00;96033.41;1030681;28;20034;-65
2023/02/27 00:26:30;;;;;;;2.90;1.90;;;;;;;-4.20;100.00;96026.66;1026560;28;20084;-66
2023/02/27 00:27:00;;;;;;;3.93;1.90;;;;;;;-4.23;100.00;96021.84;1026199;28;20131;-65
2023/02/27 00:27:31;;;;;;;3.07;1.80;;;;;;;-4.20;100.00;96024.09;1019453;29;20596;-66
2023/02/27 00:28:02;;;;;;;3.03;2.10;;;;;;;-4.20;100.00;96029.22;1018656;29;20047;-66
2023/02/27 00:28:32;;;;;;;3.77;2.20;;;;;;;-4.20;100.00;96030.97;1019762;29;20086;-65
2023/02/27 00:29:03;;;;;;;3.50;2.17;;;;;;;-4.21;100.00;96026.81;1015838;29;20063;-66
2023/02/27 00:29:34;;;;;;;4.03;2.50;;;;;;;-4.22;100.00;96028.59;1014326;29;20494;-66
2023/02/27 00:30:06;;;;;;;5.67;2.23;;;;;;;-4.25;100.00;96017.88;1019102;29;20035;-65
2023/02/27 00:30:36;;;;;;;4.40;2.05;;;;;;;-4.23;100.00;96029.53;1018386;29;20035;-65
2023/02/27 00:31:07;;;;;;;5.47;2.23;;;;;;;-4.24;100.00;96025.38;1022583;29;20067;-65
2023/02/27 00:31:37;;;;;;;6.63;2.10;;;;;;;-4.26;100.00;96029.84;1022921;28;20027;-66
2023/02/27 00:32:08;;;;;;;4.03;1.77;;;;;;;-4.23;100.00;96026.19;1019370;28;20031;-65
2023/02/27 00:32:38;;;;;;;5.57;2.70;;;;;;;-4.22;100.00;96026.03;1022518;28;20098;-65
2023/02/27 00:33:09;;;;;;;3.33;2.33;;;;;;;-4.23;100.00;96021.06;1014956;29;20051;-65
2023/02/27 00:33:39;;;;;;;3.40;2.00;;;;;;;-4.22;100.00;96018.34;1014904;29;20040;-64
2023/02/27 00:34:10;;;;;;;2.73;2.23;;;;;;;-4.22;100.00;96023.47;1022267;28;20031;-65
2023/02/27 00:34:40;;;;;;;3.63;1.90;;;;;;;-4.20;100.00;96020.72;1018572;28;20039;-65
2023/02/27 00:35:11;;;;;;;3.30;2.00;;;;;;;-4.24;100.00;96012.56;1026533;28;20495;-66
2023/02/27 00:35:42;;;;;;;7.43;2.30;;;;;;;-4.22;100.00;96020.13;1022670;28;20484;-65
2023/02/27 00:36:12;;;;;;;3.77;2.07;;;;;;;-4.22;100.00;96018.34;1026668;28;20052;-66
2023/02/27 00:36:43;;;;;;;3.17;1.83;;;;;;;-4.21;100.00;96024.25;1026349;28;20300;-65
2023/02/27 00:37:13;;;;;;;3.67;2.17;;;;;;;-4.23;100.00;96023.63;1026823;28;20030;-65
2023/02/27 00:37:43;;;;;;;3.37;2.20;;;;;;;-4.24;100.00;96020.25;1034547;28;20488;-66
2023/02/27 00:38:14;;;;;;;2.17;1.97;;;;;;;-4.26;100.00;96022.16;1030555;28;20101;-66
2023/02/27 00:38:44;;;;;;;3.83;2.40;;;;;;;-4.41;100.00;95995.66;1026340;28;20046;-65
2023/02/27 00:39:15;;;;;;;4.27;2.10;;;;;;;-4.27;100.00;96023.16;1025878;28;20134;-63
2023/02/27 00:39:45;;;;;;;6.00;2.07;;;;;;;-4.30;100.00;96026.81;1023559;28;20038;-66
2023/02/27 00:40:16;;;;;;;5.60;1.97;;;;;;;-4.29;100.00;96023.31;1023030;28;20027;-64
2023/02/27 00:40:46;;;;;;;5.17;2.30;;;;;;;-4.28;100.00;96019.00;1023042;28;20112;-63
2023/02/27 00:41:17;;;;;;;4.87;2.27;;;;;;;-4.29;100.00;96019.97;1027022;28;20050;-66
2023/02/27 00:41:47;;;;;;;5.47;1.90;;;;;;;-4.28;100.00;96017.22;1022647;28;20074;-66
2023/02/27 00:42:18;;;;;;;2.00;1.70;;;;;;;-4.28;100.00;96019.00;1022593;28;20023;-66
2023/02/27 00:42:48;;;;;;;2.60;1.97;;;;;;;-4.29;100.00;96017.41;1026641;28;20023;-66
2023/02/27 00:43:19;;;;;;;4.23;2.03;;;;;;;-4.27;100.00;96020.59;1018817;29;20792;-65
2023/02/27 00:43:49;;;;;;;3.07;2.37;;;;;;;-4.28;100.00;96019.00;1023043;28;20063;-65
2023/02/27 00:44:20;;;;;;;2.50;1.87;;;;;;;-4.31;100.00;96022.66;1022440;28;20031;-66
2023/02/27 00:44:50;;;;;;;4.20;2.10;;;;;;;-4.30;100.00;96023.47;1022551;28;20417;-65
2023/02/27 00:45:21;;;;;;;5.53;2.03;;;;;;;-4.31;100.00;96032.13;1030813;28;20015;-66
2023/02/27 00:45:51;;;;;;;6.00;1.90;;;;;;;-4.29;100.00;96022.53;1022482;28;20067;-66
2023/02/27 00:46:22;;;;;;;6.20;2.07;;;;;;;-4.29;100.00;96025.09;1026355;28;20042;-65
2023/02/27 00:46:52;;;;;;;2.83;1.77;;;;;;;-4.30;100.00;96028.59;1022600;29;20058;-65
2023/02/27 00:47:23;;;;;;;3.53;2.20;;;;;;;-4.32;100.00;96026.19;1017588;28;20034;-67
2023/02/27 00:47:53;;;;;;;5.13;2.40;;;;;;;-4.32;100.00;96027.97;1027114;28;20505;-67
2023/02/27 00:48:24;;;;;;;4.57;2.50;;;;;;;-4.34;100.00;96032.44;1027085;28;20037;-67
2023/02/27 00:48:55;;;;;;;3.53;2.10;;;;;;;-4.39;100.00;96029.56;1030972;28;20397;-67
2023/02/27 00:49:25;;;;;;;2.70;1.90;;;;;;;-4.37;100.00;96027.66;1026564;28;20049;-65
2023/02/27 00:49:56;;;;;;;3.37;2.13;;;;;;;-4.40;100.00;96036.44;1022931;28;20130;-65
2023/02/27 00:50:26;;;;;;;5.73;2.03;;;;;;;-4.40;100.00;96031.31;1022565;29;20026;-66
2023/02/27 00:50:57;;;;;;;3.70;1.87;;;;;;;-4.40;100.00;96031.31;1023127;28;20027;-66
2023/02/27 00:51:27;;;;;;;3.27;1.80;;;;;;;-4.39;100.00;96032.94;1030451;28;20269;-64
2023/02/27 00:51:58;;;;;;;2.50;2.10;;;;;;;-4.38;100.00;96031.19;1026783;28;20027;-65
2023/02/27 00:52:28;;;;;;;6.30;2.10;;;;;;;-4.41;100.00;96037.41;1030459;28;20400;-66
2023/02/27 00:52:59;;;;;;;2.03;1.80;;;;;;;-4.42;100.00;96028.13;1026331;28;20022;-64
2023/02/27 00:53:29;;;;;;;2.30;1.80;;;;;;;-4.41;100.00;96027.16;1026838;28;20018;-66
2023/02/27 00:54:00;;;;;;;6.53;2.10;;;;;;;-4.50;100.00;96021.25;1026408;28;20050;-66
2023/02/27 00:54:30;;;;;;;5.67;2.00;;;;;;;-4.44;100.00;96030.06;1022744;28;20027;-65
2023/02/27 00:55:01;;;;;;;5.97;2.17;;;;;;;-4.45;100.00;96032.78;1026559;28;20027;-65
2023/02/27 00:55:31;;;;;;;2.47;1.97;;;;;;;-4.47;100.00;96027.00;1026459;28;20038;-66
2023/02/27 00:56:02;;;;;;;3.83;1.90;;;;;;;-4.46;100.00;96036.28;1022837;28;20031;-66
2023/02/27 00:56:33;;;;;;;2.73;2.03;;;;;;;-4.46;100.00;96031.16;1026446;28;20048;-65
2023/02/27 00:57:04;;;;;;;6.55;2.22;;;;;;;-4.46;100.00;96031.16;1026266;28;20109;-66
2023/02/27 00:57:34;;;;;;;3.93;2.20;;;;;;;-4.48;100.00;96022.88;1026828;28;20101;-66
2023/02/27 00:58:05;;;;;;;4.80;2.30;;;;;;;-4.48;100.00;96028.00;1026666;28;20258;-66
2023/02/27 00:58:35;;;;;;;3.20;2.40;;;;;;;-4.50;100.00;96031.47;1026514;28;20109;-66
2023/02/27 00:59:05;;;;;;;6.53;2.30;;;;;;;-4.50;100.00;96031.47;1026693;28;20023;-65
2023/02/27 00:59:36;;;;;;;4.37;2.13;;;;;;;-4.51;100.00;96035.03;1021734;28;20071;-66
2023/02/27 01:00:07;;;;;;;2.50;2.20;;;;;;;-4.48;100.00;96036.47;1021787;28;20047;-66
2023/02/27 01:00:38;;;;;;;3.50;2.10;;;;;;;-4.48;100.00;96033.09;1022501;29;20036;-66
2023/02/27 01:01:08;;;;;;;3.43;2.10;;;;;;;-4.48;100.00;96040.78;1022558;28;20042;-65
2023/02/27 01:01:39;;;;;;;4.90;2.70;;;;;;;-4.50;100.00;96028.13;1022564;28;20058;-63
2023/02/27 01:02:09;;;;;;;3.93;2.20;;;;;;;-4.58;100.00;96018.69;1018641;29;20039;-65
2023/02/27 01:02:40;;;;;;;2.73;2.10;;;;;;;-4.52;100.00;96035.97;1014575;29;20421;-65
2023/02/27 01:03:10;;;;;;;3.17;1.93;;;;;;;-4.52;100.00;96035.97;1015443;29;20020;-65
2023/02/27 01:03:41;;;;;;;4.57;2.00;;;;;;;-4.53;100.00;96031.84;1022416;28;20019;-66
2023/02/27 01:04:11;;;;;;;3.63;1.80;;;;;;;-4.54;100.00;96034.53;1023034;28;20019;-66
2023/02/27 01:04:42;;;;;;;2.20;1.90;;;;;;;-4.54;100.00;96026.84;1026406;28;20568;-66
2023/02/27 01:05:13;;;;;;;3.60;2.13;;;;;;;-4.54;100.00;96026.84;1026433;28;20015;-65
2023/02/27 01:05:43;;;;;;;3.75;2.30;;;;;;;-4.55;100.00;96031.19;1018774;29;20098;-65
2023/02/27 01:06:14;;;;;;;3.87;1.83;;;;;;;-4.56;100.00;96032.16;1022675;28;20031;-64
2023/02/27 01:06:44;;;;;;;3.07;2.10;;;;;;;-4.74;100.00;96003.34;1026269;28;20031;-65
2023/02/27 01:07:15;;;;;;;3.03;1.90;;;;;;;-4.57;100.00;96035.66;1023028;28;20075;-65
2023/02/27 01:07:45;;;;;;;5.17;2.37;;;;;;;-4.55;100.00;96038.06;1026351;28;20027;-65
2023/02/27 01:08:16;;;;;;;6.03;2.10;;;;;;;-4.56;100.00;96042.41;1022891;28;20015;-63
2023/02/27 01:08:46;;;;;;;3.10;2.20;;;;;;;-4.58;100.00;96036.63;1026529;28;20038;-63
2023/02/27 01:09:17;;;;;;;2.90;2.00;;;;;;;-4.57;100.00;96030.53;1025980;28;20090;-63
2023/02/27 01:09:47;;;;;;;3.70;2.20;;;;;;;-4.57;100.00;96038.22;1026547;28;20022;-65
2023/02/27 01:10:18;;;;;;;5.17;2.43;;;;;;;-4.54;100.00;96040.47;1030404;28;20018;-65
2023/02/27 01:10:48;;;;;;;2.80;2.37;;;;;;;-4.56;100.00;96032.16;1030424;28;20055;-66
2023/02/27 01:11:19;;;;;;;4.20;2.30;;;;;;;-4.59;100.00;96032.47;1030748;28;20030;-66
2023/02/27 01:11:50;;;;;;;6.17;2.10;;;;;;;-4.60;100.00;96043.66;1030070;28;20026;-65
2023/02/27 01:12:20;;;;;;;2.37;2.00;;;;;;;-4.62;100.00;96035.34;1022385;28;20024;-63
2023/02/27 01:12:50;;;;;;;3.27;2.00;;;;;;;-4.67;100.00;96029.91;1026856;28;20603;-66
2023/02/27 01:13:21;;;;;;;6.50;2.33;;;;;;;-4.70;100.00;96025.09;1018328;29;20040;-65
2023/02/27 01:13:52;;;;;;;3.53;2.03;;;;;;;-4.62;100.00;96030.22;1014904;29;20051;-64
2023/02/27 01:14:22;;;;;;;4.83;2.17;;;;;;;-4.71;100.00;96020.94;1018485;29;20091;-65
2023/02/27 01:14:52;;;;;;;5.33;2.40;;;;;;;-4.64;100.00;96034.69;1018666;29;20565;-66
2023/02/27 01:15:23;;;;;;;3.80;2.23;;;;;;;-4.63;100.00;96031.16;1022622;28;20082;-65
2023/02/27 01:15:53;;;;;;;2.83;1.70;;;;;;;-4.62;100.00;96037.91;1026427;28;20034;-66
2023/02/27 01:16:24;;;;;;;4.73;2.53;;;;;;;-4.62;100.00;96032.78;1026397;28;20078;-65
2023/02/27 01:16:54;;;;;;;2.50;2.27;;;;;;;-4.61;100.00;96036.94;1030605;28;20066;-66
2023/02/27 01:17:25;;;;;;;2.83;2.00;;;;;;;-4.62;100.00;96034.56;1030424;28;20077;-66
2023/02/27 01:17:55;;;;;;;3.23;2.00;;;;;;;-4.63;100.00;96031.16;1030872;28;20034;-66
2023/02/27 01:18:26;;;;;;;3.00;2.00;;;;;;;-4.63;100.00;96031.16;1030212;28;20026;-64
2023/02/27 01:18:57;;;;;;;2.17;1.98;;;;;;;-4.63;100.00;96033.72;1030495;28;20058;-65
2023/02/27 01:19:27;;;;;;;5.70;2.00;;;;;;;-4.64;100.00;96036.47;1030411;28;20050;-66
2023/02/27 01:19:58;;;;;;;3.47;2.10;;;;;;;-4.65;100.00;96037.44;1034425;28;20022;-66
2023/02/27 01:20:28;;;;;;;5.73;2.50;;;;;;;-4.66;100.00;96041.75;1026253;28;20022;-63
2023/02/27 01:20:59;;;;;;;4.73;2.63;;;;;;;-4.68;100.00;96041.09;1022699;28;20553;-66
2023/02/27 01:21:29;;;;;;;3.47;2.23;;;;;;;-4.67;100.00;96037.56;1022570;29;20038;-66
2023/02/27 01:22:00;;;;;;;5.20;1.97;;;;;;;-4.67;100.00;96039.34;1022636;28;20125;-66
2023/02/27 01:22:31;;;;;;;4.47;2.10;;;;;;;-4.66;100.00;96033.25;1030449;28;20648;-66
2023/02/27 01:23:02;;;;;;;5.20;2.33;;;;;;;-4.66;100.00;96036.63;1030378;28;20117;-66
2023/02/27 01:23:32;;;;;;;3.63;2.17;;;;;;;-4.66;100.00;96033.25;1026875;28;20100;-66
2023/02/27 01:24:03;;;;;;;3.93;1.83;;;;;;;-4.64;100.00;96039.81;1030429;28;20113;-65
2023/02/27 01:24:34;;;;;;;5.77;2.37;;;;;;;-4.65;100.00;96035.66;1026477;28;20027;-63
2023/02/27 01:25:04;;;;;;;2.40;2.20;;;;;;;-4.62;100.00;96037.91;1022872;28;20058;-66
2023/02/27 01:25:35;;;;;;;5.40;1.87;;;;;;;-4.80;100.00;96009.09;1026391;28;20035;-65
2023/02/27 01:26:05;;;;;;;2.70;2.10;;;;;;;-4.65;100.00;96035.66;1026733;28;20035;-64
2023/02/27 01:26:36;;;;;;;2.80;2.20;;;;;;;-4.71;100.00;96023.50;1030593;28;20679;-65
2023/02/27 01:27:06;;;;;;;3.87;2.33;;;;;;;-4.69;100.00;96031.00;1026176;28;20077;-65
2023/02/27 01:27:37;;;;;;;3.03;2.23;;;;;;;-4.67;100.00;96029.09;1022738;29;20039;-65
2023/02/27 01:28:07;;;;;;;3.97;2.10;;;;;;;-4.65;100.00;96033.09;1018451;29;20036;-65
2023/02/27 01:28:38;;;;;;;5.33;2.57;;;;;;;-4.67;100.00;96029.91;1014611;28;20039;-65
2023/02/27 01:29:08;;;;;;;3.73;2.10;;;;;;;-4.69;100.00;96031.84;1026716;28;20035;-66
2023/02/27 01:29:39;;;;;;;4.73;2.37;;;;;;;-4.69;100.00;96028.44;1025981;28;20047;-65
2023/02/27 01:30:10;;;;;;;3.30;2.43;;;;;;;-4.68;100.00;96032.63;1031064;28;20045;-65
2023/02/27 01:30:41;;;;;;;6.95;1.92;;;;;;;-4.65;100.00;96030.56;1034224;28;20038;-66
2023/02/27 01:31:11;;;;;;;3.63;2.03;;;;;;;-4.65;100.00;96025.44;1030562;28;20030;-64
2023/02/27 01:31:42;;;;;;;4.70;2.17;;;;;;;-4.64;100.00;96029.56;1026826;28;20035;-63
2023/02/27 01:32:12;;;;;;;3.50;2.23;;;;;;;-4.65;100.00;96033.09;1022432;28;20050;-65
2023/02/27 01:32:43;;;;;;;6.93;2.60;;;;;;;-4.65;100.00;96028.00;1022323;28;20255;-66
2023/02/27 01:33:13;;;;;;;3.93;2.30;;;;;;;-4.73;100.00;96025.41;1026921;28;20031;-66
2023/02/27 01:33:44;;;;;;;4.90;2.00;;;;;;;-4.67;100.00;96040.13;1026332;28;20128;-62
2023/02/27 01:34:14;;;;;;;5.80;2.70;;;;;;;-4.68;100.00;96033.44;1026855;28;20472;-66
2023/02/27 01:34:45;;;;;;;7.17;2.30;;;;;;;-4.66;100.00;96040.94;1026308;28;20095;-66
2023/02/27 01:35:15;;;;;;;5.10;2.40;;;;;;;-4.65;100.00;96038.22;1026347;28;20027;-66
2023/02/27 01:35:46;;;;;;;4.73;2.20;;;;;;;-4.64;100.00;96033.91;1026794;28;20034;-65
2023/02/27 01:36:16;;;;;;;6.20;2.27;;;;;;;-4.63;100.00;96036.28;1030560;28;20030;-65
2023/02/27 01:36:47;;;;;;;5.63;2.50;;;;;;;-4.65;100.00;96030.56;1030357;28;20034;-66
2023/02/27 01:37:17;;;;;;;4.23;2.47;;;;;;;-4.66;100.00;96035.81;1022477;28;20092;-63
2023/02/27 01:37:48;;;;;;;3.13;2.10;;;;;;;-4.74;100.00;96023.81;1018534;29;20027;-64
2023/02/27 01:38:18;;;;;;;6.43;2.33;;;;;;;-4.66;100.00;96034.06;1026889;28;20054;-65
2023/02/27 01:38:49;;;;;;;4.60;2.13;;;;;;;-4.65;100.00;96038.22;1026584;28;20035;-66
2023/02/27 01:39:19;;;;;;;3.07;2.13;;;;;;;-4.64;100.00;96039.03;1029809;28;20073;-63
2023/02/27 01:39:50;;;;;;;4.87;2.83;;;;;;;-4.65;100.00;96038.22;1034728;28;20162;-65
2023/02/27 01:40:20;;;;;;;4.20;2.13;;;;;;;-4.63;100.00;96038.84;1033596;28;20026;-63
2023/02/27 01:40:51;;;;;;;4.13;2.33;;;;;;;-4.63;100.00;96038.84;1033344;28;20033;-64
2023/02/27 01:41:21;;;;;;;3.73;2.47;;;;;;;-4.64;100.00;96029.56;1026516;28;20555;-65
2023/02/27 01:41:52;;;;;;;2.97;2.33;;;;;;;-4.61;100.00;96039.50;1022441;29;20031;-66
2023/02/27 01:42:24;;;;;;;5.90;2.50;;;;;;;-4.66;100.00;96030.69;1022358;28;20046;-66
2023/02/27 01:42:55;;;;;;;6.10;2.30;;;;;;;-4.63;100.00;96043.19;1022702;28;20303;-65
2023/02/27 01:43:25;;;;;;;4.00;2.20;;;;;;;-4.67;100.00;96035.03;1026587;28;20042;-65
2023/02/27 01:44:00;;;;;;;4.53;2.43;;;;;;;-4.59;100.00;96036.81;1022616;28;20035;-63
2023/02/27 01:44:30;;;;;;;3.15;2.15;;;;;;;-4.58;100.00;96038.38;1022626;29;20093;-63
2023/02/27 01:45:11;;;;;;;3.30;2.23;;;;;;;-4.56;100.00;96039.84;1022583;29;20126;-64
2023/02/27 01:45:43;;;;;;;2.47;2.00;;;;;;;-4.57;100.00;96040.78;1026303;28;20035;-64
2023/02/27 01:46:13;;;;;;;4.38;2.65;;;;;;;-4.58;100.00;96033.28;1026571;28;20134;-66
2023/02/27 01:46:44;;;;;;;3.90;2.20;;;;;;;-4.58;100.00;96036.63;1027258;28;20623;-66
2023/02/27 01:47:14;;;;;;;5.87;2.60;;;;;;;-4.60;100.00;96030.84;1020393;28;20035;-65
2023/02/27 01:47:48;;;;;;;5.83;2.60;;;;;;;-4.56;100.00;96036.44;1023025;28;20332;-66
2023/02/27 01:48:18;;;;;;;5.70;2.35;;;;;;;-4.54;100.00;96037.91;1020131;29;20022;-66
2023/02/27 01:48:49;;;;;;;4.87;2.47;;;;;;;-4.53;100.00;96033.56;1019665;29;20047;-66
2023/02/27 01:49:31;;;;;;;2.60;2.37;;;;;;;-4.58;100.00;96031.50;1018906;29;20035;-65
2023/02/27 01:50:01;;;;;;;3.15;2.25;;;;;;;-4.70;100.00;96007.19;1022409;28;20035;-63
2023/02/27 01:50:32;;;;;;;3.53;2.40;;;;;;;-4.51;100.00;96035.03;1019306;29;20035;-64
2023/02/27 01:51:18;;;;;;;3.95;1.95;;;;;;;-4.49;100.00;96042.56;1015535;29;20549;-65
2023/02/27 01:51:54;;;;;;;3.00;2.25;;;;;;;-4.51;100.00;96035.03;1015233;29;20087;-64
2023/02/27 01:52:24;;;;;;;5.10;2.67;;;;;;;-4.50;100.00;96036.59;1018404;29;20114;-65
2023/02/27 01:52:56;;;;;;;5.03;1.93;;;;;;;-4.55;100.00;96023.50;1014112;29;20023;-65
2023/02/27 01:53:28;;;;;;;5.20;2.67;;;;;;;-4.54;100.00;96027.66;1015522;29;20032;-66
2023/02/27 01:53:59;;;;;;;2.80;2.20;;;;;;;-4.43;100.00;96041.09;1019281;29;20031;-65
2023/02/27 01:54:30;;;;;;;6.75;2.47;;;;;;;-4.47;100.00;96029.56;1015329;29;20032;-65
2023/02/27 01:55:01;;;;;;;3.47;2.30;;;;;;;-4.41;100.00;96041.75;1022511;28;20019;-66
2023/02/27 01:55:32;;;;;;;3.22;2.28;;;;;;;-4.45;100.00;96028.47;1015290;29;20738;-65
2023/02/27 01:56:06;;;;;;;3.22;2.42;;;;;;;-4.40;100.00;96040.75;1019338;29;20031;-66
2023/02/27 01:56:39;;;;;;;2.58;2.05;;;;;;;-4.38;100.00;96038.84;1017560;29;20033;-65
2023/02/27 01:57:10;;;;;;;4.68;2.47;;;;;;;-4.36;100.00;96036.91;1023123;29;20207;-66
2023/02/27 01:57:40;;;;;;;3.37;2.30;;;;;;;-4.36;100.00;96042.03;1023467;29;20398;-65
2023/02/27 01:58:11;;;;;;;4.63;2.87;;;;;;;-4.37;100.00;96028.44;1019138;29;20072;-64
2023/02/27 01:58:41;;;;;;;5.47;2.30;;;;;;;-4.36;100.00;96036.91;1018853;29;20060;-65
2023/02/27 01:59:12;;;;;;;5.23;2.30;;;;;;;-4.35;100.00;96036.78;1022825;29;20501;-65
2023/02/27 01:59:42;;;;;;;5.30;2.73;;;;;;;-4.37;100.00;96030.19;1011101;29;20052;-66
2023/02/27 02:00:13;;;;;;;5.47;2.27;;;;;;;-4.32;100.00;96033.88;1023310;29;20019;-65
2023/02/27 02:00:44;;;;;;;4.03;2.40;;;;;;;-4.29;100.00;96043.00;1023100;29;20027;-65
2023/02/27 02:01:14;;;;;;;5.63;2.40;;;;;;;-4.27;100.00;96038.50;1015261;29;20051;-66
2023/02/27 02:01:45;;;;;;;4.87;2.80;;;;;;;-4.30;100.00;96036.28;1015516;29;20047;-66
2023/02/27 02:02:24;;;;;;;5.27;2.83;;;;;;;-4.30;100.00;96028.59;1011456;29;20399;-64
2023/02/27 02:03:07;;;;;;;5.22;2.45;;;;;;;-4.26;100.00;96040.09;1020721;29;20062;-66
2023/02/27 02:03:56;;;;;;;4.85;2.42;;;;;;;-4.23;100.00;96037.22;1019368;29;20522;-66
2023/02/27 02:04:34;;;;;;;6.10;2.55;;;;;;;-4.22;100.00;96038.84;1019609;29;20767;-66
2023/02/27 02:05:05;;;;;;;4.07;2.17;;;;;;;-4.20;100.00;96036.91;1021344;28;20068;-66
2023/02/27 02:05:35;;;;;;;4.77;2.77;;;;;;;-4.24;100.00;96025.38;1023540;29;20046;-65
2023/02/27 02:06:06;;;;;;;5.23;3.77;;;;;;;-4.17;100.00;96041.69;1016421;29;20256;-65
2023/02/27 02:06:37;;;;;;;4.67;2.50;;;;;;;-4.16;100.00;96038.16;1019273;29;20517;-66
2023/02/27 02:07:10;;;;;;;4.78;2.15;;;;;;;-4.15;100.00;96039.78;1012257;29;20080;-67
2023/02/27 02:07:41;;;;;;;4.53;2.35;;;;;;;-4.31;100.00;96014.19;1016363;29;20091;-66
2023/02/27 02:08:13;;;;;;;3.83;2.20;;;;;;;-4.13;100.00;96042.97;1019261;29;20106;-66
2023/02/27 02:08:46;;;;;;;5.82;2.70;;;;;;;-4.30;100.00;96011.44;1015792;29;20068;-66
2023/02/27 02:09:18;;;;;;;7.50;2.63;;;;;;;-4.11;100.00;96041.06;1019138;29;20186;-66
2023/02/27 02:09:55;;;;;;;4.30;2.70;;;;;;;-4.11;100.00;96041.06;1012669;29;20028;-64
2023/02/27 02:10:25;;;;;;;4.55;2.40;;;;;;;-4.08;100.00;96039.94;1015286;29;20040;-64
2023/02/27 02:10:56;;;;;;;5.53;2.70;;;;;;;-4.11;100.00;96030.81;1016648;29;20410;-66
2023/02/27 02:11:27;;;;;;;3.80;2.47;;;;;;;-4.09;100.00;96035.75;1012807;29;20422;-66
2023/02/27 02:11:58;;;;;;;3.67;2.43;;;;;;;-4.05;100.00;96037.84;1011665;29;20522;-66
2023/02/27 02:12:30;;;;;;;5.37;2.30;;;;;;;-4.05;100.00;96030.16;1019532;29;20267;-64
2023/02/27 02:13:01;;;;;;;4.07;2.25;;;;;;;-4.03;100.00;96033.31;1023345;29;20135;-66
2023/02/27 02:13:31;;;;;;;4.13;2.43;;;;;;;-3.99;100.00;96038.13;1022961;28;20043;-66
2023/02/27 02:14:02;;;;;;;5.67;3.13;;;;;;;-3.98;100.00;96032.06;1019654;29;20564;-65
2023/02/27 02:14:32;;;;;;;3.60;1.83;;;;;;;-3.98;100.00;96035.41;1019645;28;20042;-64
2023/02/27 02:15:03;;;;;;;3.27;2.47;;;;;;;-4.17;100.00;96008.38;1027152;28;20058;-65
2023/02/27 02:15:36;;;;;;;3.65;2.65;;;;;;;-3.97;100.00;96036.22;1027379;28;20035;-66
2023/02/27 02:16:31;;;;;;;3.05;2.03;;;;;;;-3.96;100.00;96037.81;1023316;29;20035;-64
2023/02/27 02:17:12;;;;;;;4.70;2.22;;;;;;;-3.97;100.00;96034.44;1023145;28;20057;-64
2023/02/27 02:18:02;;;;;;;6.70;2.42;;;;;;;-3.99;100.00;96025.31;1027401;28;20059;-66
2023/02/27 02:18:58;;;;;;;5.30;2.28;;;;;;;-3.95;100.00;96034.28;1027045;28;20118;-66
2023/02/27 02:19:51;;;;;;;4.20;2.38;;;;;;;-3.99;100.00;96028.69;1023257;29;20023;-66
2023/02/27 02:20:48;;;;;;;4.60;2.25;;;;;;;-3.94;100.00;96033.31;1025441;28;20027;-66
2023/02/27 02:21:21;;;;;;;4.45;2.50;;;;;;;-3.93;100.00;96028.03;1027193;28;20019;-66
2023/02/27 02:21:58;;;;;;;2.25;2.03;;;;;;;-3.92;100.00;96028.84;1029183;28;20516;-66
2023/02/27 02:22:46;;;;;;;6.35;2.50;;;;;;;-3.91;100.00;96030.44;1035452;28;20022;-66
2023/02/27 02:23:35;;;;;;;4.35;2.45;;;;;;;-3.93;100.00;96030.59;1027014;28;20035;-63
2023/02/27 02:24:32;;;;;;;3.75;2.08;;;;;;;-3.93;100.00;96029.78;1031198;28;20125;-65
2023/02/27 02:25:27;;;;;;;3.38;2.05;;;;;;;-3.92;100.00;96028.84;1026074;28;20030;-66
2023/02/27 02:26:00;;;;;;;3.63;2.08;;;;;;;-3.92;100.00;96027.06;1022406;29;20501;-66
2023/02/27 02:26:50;;;;;;;3.20;2.58;;;;;;;-3.96;100.00;96019.88;1023589;29;20031;-65
2023/02/27 02:27:35;;;;;;;3.28;2.15;;;;;;;-3.92;100.00;96028.84;1027183;28;20026;-65
2023/02/27 02:28:14;;;;;;;2.72;2.30;;;;;;;-3.92;100.00;96023.72;1031451;28;20026;-66
2023/02/27 02:29:03;;;;;;;2.97;1.98;;;;;;;-3.92;100.00;96028.84;1027282;28;20038;-66